Time;durP1;ratioP1;P1;durP2;ratioP2;P2;SDS_P1;SDS_P2;PMS_P1;PMS_P2;Temp;Humidity;BMP_temperature;BMP_pressure;BME280_temperature;BME280_humidity;BME280_pressure;Samples;Min_cycle;Max_cycle;Signal;HPM_P1;HPM_P2
2023/04/15 00:01:24;;;;;;;5.93;1.40;;;;;;;;;;5284158;28;20051;-73
2023/04/15 00:03:56;;;;;;;4.60;0.95;;;;;;;;;;5282738;28;20013;-74
2023/04/15 00:06:27;;;;;;;3.10;1.02;;;;;;;;;;5283840;28;20024;-73
2023/04/15 00:08:58;;;;;;;5.38;1.13;;;;;;;;;;5282516;28;20418;-74
2023/04/15 00:11:30;;;;;;;9.35;1.33;;;;;;;;;;5283527;28;20024;-74
2023/04/15 00:14:01;;;;;;;6.13;1.33;;;;;;;;;;5283718;28;20025;-72
2023/04/15 00:16:32;;;;;;;7.70;1.50;;;;;;;;;;5282674;28;20025;-74
2023/04/15 00:19:03;;;;;;;5.58;1.02;;;;;;;;;;5283623;28;20067;-75
2023/04/15 00:21:35;;;;;;;4.15;1.45;;;;;;;;;;5283693;28;20012;-74
2023/04/15 00:24:06;;;;;;;6.60;1.70;;;;;;;;;;5282846;28;20210;-75
2023/04/15 00:26:38;;;;;;;7.30;1.73;;;;;;;;;;5283314;28;20033;-75
2023/04/15 00:29:09;;;;;;;6.82;1.38;;;;;;;;;;5284095;28;20475;-74
2023/04/15 00:31:41;;;;;;;5.88;1.52;;;;;;;;;;5282562;28;20023;-75
2023/04/15 00:34:12;;;;;;;4.78;1.17;;;;;;;;;;5283490;28;20009;-74
2023/04/15 00:36:43;;;;;;;5.88;1.20;;;;;;;;;;5282805;28;20471;-74
2023/04/15 00:39:15;;;;;;;4.50;1.65;;;;;;;;;;5282569;28;20021;-74
2023/04/15 00:41:46;;;;;;;7.88;2.20;;;;;;;;;;5282672;28;20580;-74
2023/04/15 00:44:17;;;;;;;6.10;1.45;;;;;;;;;;5282549;28;20553;-75
2023/04/15 00:46:51;;;;;;;10.35;1.98;;;;;;;;;;5282327;28;20040;-75
2023/04/15 00:49:23;;;;;;;5.65;1.55;;;;;;;;;;5283184;28;20012;-75
2023/04/15 00:51:55;;;;;;;4.05;1.58;;;;;;;;;;5281873;28;20024;-74
2023/04/15 00:54:26;;;;;;;5.18;1.58;;;;;;;;;;5283105;28;20024;-75
2023/04/15 00:56:58;;;;;;;5.32;1.88;;;;;;;;;;5282613;28;20028;-75
2023/04/15 00:59:30;;;;;;;5.05;1.88;;;;;;;;;;5282117;28;20029;-75
2023/04/15 01:02:01;;;;;;;6.13;1.85;;;;;;;;;;5283053;28;20016;-74
2023/04/15 01:04:33;;;;;;;3.88;1.55;;;;;;;;;;5282335;28;20017;-75
2023/04/15 01:07:04;;;;;;;4.75;1.70;;;;;;;;;;5281250;28;20135;-75
2023/04/15 01:09:35;;;;;;;5.70;1.64;;;;;;;;;;5282247;28;20024;-75
2023/04/15 01:12:09;;;;;;;7.20;2.17;;;;;;;;;;5281487;28;20020;-75
2023/04/15 01:14:40;;;;;;;9.93;2.35;;;;;;;;;;5281931;28;20012;-75
2023/04/15 01:17:12;;;;;;;5.90;2.50;;;;;;;;;;5282564;28;20033;-74
2023/04/15 01:19:43;;;;;;;7.10;2.38;;;;;;;;;;5281114;28;20017;-75
2023/04/15 01:22:15;;;;;;;5.35;1.90;;;;;;;;;;5282241;28;20021;-74
2023/04/15 01:24:51;;;;;;;4.78;1.80;;;;;;;;;;5281668;28;20582;-75
2023/04/15 01:27:22;;;;;;;6.05;2.03;;;;;;;;;;5281589;28;20039;-75
2023/04/15 01:29:53;;;;;;;6.72;2.53;;;;;;;;;;5281626;28;20028;-75
2023/04/15 01:32:24;;;;;;;5.60;2.08;;;;;;;;;;5282185;28;20074;-75
2023/04/15 01:34:56;;;;;;;7.00;2.25;;;;;;;;;;5280709;28;20273;-75
2023/04/15 01:37:27;;;;;;;4.40;1.83;;;;;;;;;;5282145;28;20048;-75
2023/04/15 01:39:58;;;;;;;6.00;2.20;;;;;;;;;;5281806;28;20462;-75
2023/04/15 01:42:30;;;;;;;4.80;1.88;;;;;;;;;;5281029;28;20035;-75
2023/04/15 01:45:01;;;;;;;6.65;2.38;;;;;;;;;;5281631;28;20017;-75
2023/04/15 01:47:32;;;;;;;7.30;2.75;;;;;;;;;;5280629;28;20028;-75
2023/04/15 01:50:04;;;;;;;6.36;2.50;;;;;;;;;;5281739;28;20021;-75
2023/04/15 01:52:35;;;;;;;8.02;2.97;;;;;;;;;;5281484;28;20042;-75
2023/04/15 01:55:08;;;;;;;5.88;2.55;;;;;;;;;;5280670;28;20146;-75
2023/04/15 01:57:39;;;;;;;10.32;2.90;;;;;;;;;;5280893;28;20021;-74
2023/04/15 02:00:11;;;;;;;8.57;2.72;;;;;;;;;;5281777;28;20351;-75
2023/04/15 02:02:42;;;;;;;4.78;1.92;;;;;;;;;;5280519;28;20024;-75
2023/04/15 02:05:14;;;;;;;5.78;2.20;;;;;;;;;;5282157;28;20078;-74
2023/04/15 02:07:47;;;;;;;5.68;2.10;;;;;;;;;;5281371;28;20012;-75
2023/04/15 02:10:18;;;;;;;6.68;2.25;;;;;;;;;;5281164;28;20013;-75
2023/04/15 02:12:49;;;;;;;5.30;2.50;;;;;;;;;;5280904;28;20443;-75
2023/04/15 02:15:21;;;;;;;5.53;2.17;;;;;;;;;;5281537;28;20410;-74
2023/04/15 02:17:54;;;;;;;5.30;2.10;;;;;;;;;;5279571;28;20032;-75
2023/04/15 02:20:25;;;;;;;4.60;2.28;;;;;;;;;;5281333;28;20017;-74
2023/04/15 02:22:56;;;;;;;8.00;2.60;;;;;;;;;;5280088;28;20550;-74
2023/04/15 02:25:27;;;;;;;6.35;2.47;;;;;;;;;;5281326;28;20054;-75
2023/04/15 02:27:58;;;;;;;6.58;2.38;;;;;;;;;;5280984;28;20447;-74
2023/04/15 02:30:29;;;;;;;6.15;2.83;;;;;;;;;;5280433;28;20439;-74
2023/04/15 02:33:02;;;;;;;9.07;3.25;;;;;;;;;;5281002;28;20028;-74
2023/04/15 02:35:33;;;;;;;4.43;2.42;;;;;;;;;;5281286;28;20008;-75
2023/04/15 02:38:04;;;;;;;6.97;3.08;;;;;;;;;;5280264;28;20012;-74
2023/04/15 02:40:36;;;;;;;7.30;3.60;;;;;;;;;;5281248;28;20451;-75
2023/04/15 02:43:07;;;;;;;8.05;3.15;;;;;;;;;;5281068;28;20052;-74
2023/04/15 02:45:38;;;;;;;6.55;3.42;;;;;;;;;;5280008;28;20029;-74
2023/04/15 02:48:09;;;;;;;5.32;2.47;;;;;;;;;;5281833;28;20032;-74
2023/04/15 02:50:41;;;;;;;7.55;3.53;;;;;;;;;;5280585;28;20013;-74
2023/04/15 02:53:13;;;;;;;8.32;3.10;;;;;;;;;;5281897;28;20029;-74
2023/04/15 02:55:45;;;;;;;7.15;3.17;;;;;;;;;;5280990;28;20051;-74
2023/04/15 02:58:16;;;;;;;4.63;2.53;;;;;;;;;;5280487;28;20105;-74
2023/04/15 03:00:49;;;;;;;5.78;3.10;;;;;;;;;;5280709;28;20525;-75
2023/04/15 03:03:20;;;;;;;8.23;2.65;;;;;;;;;;5281648;28;20017;-74
2023/04/15 03:05:52;;;;;;;6.28;3.20;;;;;;;;;;5279833;28;20025;-74
2023/04/15 03:08:23;;;;;;;5.40;2.78;;;;;;;;;;5281256;28;20463;-75
2023/04/15 03:10:54;;;;;;;6.93;2.67;;;;;;;;;;5280839;28;20021;-74
2023/04/15 03:13:25;;;;;;;5.35;3.47;;;;;;;;;;5280789;28;20099;-74
2023/04/15 03:15:57;;;;;;;5.30;3.03;;;;;;;;;;5280956;28;20043;-75
2023/04/15 03:18:28;;;;;;;4.15;2.92;;;;;;;;;;5281176;28;20020;-75
2023/04/15 03:20:59;;;;;;;5.45;2.67;;;;;;;;;;5279701;28;20368;-75
2023/04/15 03:23:30;;;;;;;5.85;2.83;;;;;;;;;;5280409;28;20091;-75
2023/04/15 03:26:02;;;;;;;4.28;2.83;;;;;;;;;;5279729;28;20895;-74
2023/04/15 03:28:33;;;;;;;6.43;2.90;;;;;;;;;;5281666;28;20474;-75
2023/04/15 03:31:05;;;;;;;4.57;2.35;;;;;;;;;;5284551;28;20104;-75
2023/04/15 03:33:36;;;;;;;5.10;2.78;;;;;;;;;;5283716;28;20383;-75
2023/04/15 03:36:07;;;;;;;5.64;3.14;;;;;;;;;;5284709;28;20028;-74
2023/04/15 03:38:38;;;;;;;6.10;3.30;;;;;;;;;;5284080;28;20017;-75
2023/04/15 03:41:09;;;;;;;5.40;3.13;;;;;;;;;;5283729;28;20020;-74
2023/04/15 03:43:41;;;;;;;5.03;3.15;;;;;;;;;;5283950;28;20027;-74
2023/04/15 03:46:12;;;;;;;5.90;3.50;;;;;;;;;;5284145;28;20155;-74
2023/04/15 03:48:43;;;;;;;5.25;3.33;;;;;;;;;;5283050;28;20017;-74
2023/04/15 03:51:14;;;;;;;5.13;3.58;;;;;;;;;;5284240;28;20034;-74
2023/04/15 03:53:45;;;;;;;7.30;4.07;;;;;;;;;;5283615;28;20020;-74
2023/04/15 03:56:17;;;;;;;8.15;4.90;;;;;;;;;;5283374;28;20037;-74
2023/04/15 03:58:48;;;;;;;6.68;3.95;;;;;;;;;;5283660;28;20423;-74
2023/04/15 04:01:19;;;;;;;6.02;4.60;;;;;;;;;;5283391;28;20051;-74
2023/04/15 04:03:50;;;;;;;8.73;4.60;;;;;;;;;;5283111;28;20024;-74
2023/04/15 04:06:21;;;;;;;5.05;4.35;;;;;;;;;;5284221;28;20451;-74
2023/04/15 04:08:53;;;;;;;7.07;4.18;;;;;;;;;;5282360;28;20016;-74
2023/04/15 04:11:24;;;;;;;7.30;4.70;;;;;;;;;;5283664;28;20028;-74
2023/04/15 04:13:55;;;;;;;7.97;4.65;;;;;;;;;;5283651;28;20375;-75
2023/04/15 04:16:26;;;;;;;8.52;4.60;;;;;;;;;;5283509;28;20105;-74
2023/04/15 04:18:57;;;;;;;8.00;5.40;;;;;;;;;;5283034;28;20104;-74
2023/04/15 04:21:29;;;;;;;8.88;5.35;;;;;;;;;;5283985;28;20021;-74
2023/04/15 04:24:01;;;;;;;8.75;5.15;;;;;;;;;;5282755;28;20128;-74
2023/04/15 04:26:32;;;;;;;8.57;5.25;;;;;;;;;;5283830;28;20438;-74
2023/04/15 04:29:03;;;;;;;10.55;5.70;;;;;;;;;;5282402;28;20078;-75
2023/04/15 04:31:34;;;;;;;8.73;5.28;;;;;;;;;;5283064;28;20040;-74
2023/04/15 04:34:05;;;;;;;7.10;5.18;;;;;;;;;;5283021;28;20024;-74
2023/04/15 04:36:36;;;;;;;7.26;4.86;;;;;;;;;;5282254;28;20032;-74
2023/04/15 04:39:08;;;;;;;11.93;6.07;;;;;;;;;;5282927;28;20016;-74
2023/04/15 04:41:39;;;;;;;6.97;5.50;;;;;;;;;;5281633;28;20024;-74
2023/04/15 04:44:10;;;;;;;9.55;6.93;;;;;;;;;;5281964;28;20434;-73
2023/04/15 04:46:41;;;;;;;10.05;6.63;;;;;;;;;;5282018;28;20218;-73
2023/04/15 04:49:12;;;;;;;8.05;6.07;;;;;;;;;;5282959;28;20079;-74
2023/04/15 04:51:44;;;;;;;7.88;6.13;;;;;;;;;;5281672;28;20028;-73
2023/04/15 04:54:15;;;;;;;7.95;6.05;;;;;;;;;;5282930;28;20016;-73
2023/04/15 04:56:47;;;;;;;6.95;5.75;;;;;;;;;;5282306;28;20025;-73
2023/04/15 04:59:18;;;;;;;8.10;7.30;;;;;;;;;;5282053;28;20028;-73
2023/04/15 05:01:49;;;;;;;7.03;6.20;;;;;;;;;;5282163;28;20031;-73
2023/04/15 05:04:21;;;;;;;9.45;6.47;;;;;;;;;;5281920;28;20021;-74
2023/04/15 05:06:52;;;;;;;7.70;6.05;;;;;;;;;;5282048;28;20029;-73
2023/04/15 05:09:23;;;;;;;8.20;5.48;;;;;;;;;;5282452;28;20032;-74
2023/04/15 05:11:55;;;;;;;9.95;6.68;;;;;;;;;;5281322;28;20066;-73
2023/04/15 05:14:26;;;;;;;8.75;5.97;;;;;;;;;;5282529;28;20013;-74
2023/04/15 05:16:57;;;;;;;8.38;6.03;;;;;;;;;;5282024;28;20021;-73
2023/04/15 05:19:29;;;;;;;8.48;6.43;;;;;;;;;;5281564;28;20028;-73
2023/04/15 05:22:00;;;;;;;11.32;6.90;;;;;;;;;;5281799;28;20044;-73
2023/04/15 05:24:31;;;;;;;8.43;6.35;;;;;;;;;;5282043;28;20040;-73
2023/04/15 05:27:02;;;;;;;8.05;6.93;;;;;;;;;;5281434;28;20063;-73
2023/04/15 05:29:33;;;;;;;7.13;6.28;;;;;;;;;;5281979;28;20035;-74
2023/04/15 05:32:05;;;;;;;10.18;6.88;;;;;;;;;;5281765;28;20464;-74
2023/04/15 05:34:36;;;;;;;8.43;6.40;;;;;;;;;;5280901;28;20032;-73
2023/04/15 05:37:07;;;;;;;7.90;6.45;;;;;;;;;;5281874;28;20074;-74
2023/04/15 05:39:39;;;;;;;9.70;6.97;;;;;;;;;;5280577;28;20085;-74
2023/04/15 05:42:10;;;;;;;10.18;6.78;;;;;;;;;;5282010;28;20035;-73
2023/04/15 05:44:41;;;;;;;9.35;6.80;;;;;;;;;;5281287;28;20023;-74
2023/04/15 05:47:12;;;;;;;10.02;7.07;;;;;;;;;;5281384;28;20020;-73
2023/04/15 05:49:43;;;;;;;6.93;6.20;;;;;;;;;;5281505;28;20025;-74
2023/04/15 05:52:15;;;;;;;7.20;6.50;;;;;;;;;;5281071;28;20025;-73
2023/04/15 05:54:46;;;;;;;7.57;6.20;;;;;;;;;;5280456;28;20023;-74
2023/04/15 05:57:17;;;;;;;8.74;5.98;;;;;;;;;;5281800;28;20493;-74
2023/04/15 05:59:51;;;;;;;8.13;6.05;;;;;;;;;;5281508;28;20360;-74
2023/04/15 06:02:22;;;;;;;6.93;5.55;;;;;;;;;;5281194;28;20198;-73
2023/04/15 06:04:53;;;;;;;7.50;6.80;;;;;;;;;;5281165;28;20154;-74
2023/04/15 06:07:24;;;;;;;7.97;6.35;;;;;;;;;;5281494;28;20048;-74
2023/04/15 06:09:55;;;;;;;7.38;6.15;;;;;;;;;;5280210;28;20021;-74
2023/04/15 06:12:27;;;;;;;7.20;5.75;;;;;;;;;;5281830;28;20519;-74
2023/04/15 06:14:58;;;;;;;6.82;6.15;;;;;;;;;;5281009;28;20039;-74
2023/04/15 06:17:30;;;;;;;8.63;6.28;;;;;;;;;;5281435;28;20017;-74
2023/04/15 06:20:01;;;;;;;6.20;5.57;;;;;;;;;;5281175;28;20103;-74
2023/04/15 06:22:32;;;;;;;6.28;5.68;;;;;;;;;;5280426;28;20573;-74
2023/04/15 06:25:04;;;;;;;8.23;6.47;;;;;;;;;;5281238;28;20127;-73
2023/04/15 06:27:35;;;;;;;8.07;6.40;;;;;;;;;;5281176;28;20032;-73
2023/04/15 06:30:06;;;;;;;9.18;6.35;;;;;;;;;;5280629;28;20020;-74
2023/04/15 06:32:38;;;;;;;7.68;5.88;;;;;;;;;;5280539;28;20362;-74
2023/04/15 06:35:09;;;;;;;7.82;6.05;;;;;;;;;;5281633;28;20070;-74
2023/04/15 06:37:40;;;;;;;8.23;6.07;;;;;;;;;;5280396;28;20020;-74
2023/04/15 06:40:11;;;;;;;6.65;5.88;;;;;;;;;;5281356;28;20056;-74
2023/04/15 06:42:42;;;;;;;7.78;5.35;;;;;;;;;;5280029;28;20487;-76
2023/04/15 06:45:14;;;;;;;8.52;6.25;;;;;;;;;;5281340;28;20021;-74
2023/04/15 06:47:46;;;;;;;8.85;5.38;;;;;;;;;;5280318;28;20032;-74
2023/04/15 06:50:17;;;;;;;7.28;5.53;;;;;;;;;;5276052;28;20032;-72
2023/04/15 06:52:48;;;;;;;6.13;5.50;;;;;;;;;;5280002;28;20090;-73
2023/04/15 06:55:19;;;;;;;8.45;6.38;;;;;;;;;;5281096;28;20021;-74
2023/04/15 06:57:50;;;;;;;6.70;5.78;;;;;;;;;;5279770;28;20017;-73
2023/04/15 07:00:22;;;;;;;8.68;6.10;;;;;;;;;;5280039;28;20028;-73
2023/04/15 07:02:54;;;;;;;6.05;5.47;;;;;;;;;;5280930;28;20020;-73
2023/04/15 07:05:25;;;;;;;6.47;5.78;;;;;;;;;;5284417;28;20044;-73
2023/04/15 07:07:56;;;;;;;6.53;5.78;;;;;;;;;;5284200;28;20024;-73
2023/04/15 07:10:27;;;;;;;7.18;5.32;;;;;;;;;;5285434;28;20371;-74
2023/04/15 07:12:58;;;;;;;6.65;4.80;;;;;;;;;;5283752;28;20023;-73
2023/04/15 07:15:30;;;;;;;5.95;4.88;;;;;;;;;;5285090;28;20047;-73
2023/04/15 07:18:01;;;;;;;6.07;4.47;;;;;;;;;;5284144;28;20056;-73
2023/04/15 07:20:32;;;;;;;7.40;5.07;;;;;;;;;;5284711;28;20024;-72
2023/04/15 07:23:03;;;;;;;5.55;4.60;;;;;;;;;;5284559;28;20091;-74
2023/04/15 07:25:35;;;;;;;5.25;4.57;;;;;;;;;;5283780;28;20074;-72
2023/04/15 07:28:06;;;;;;;5.60;4.00;;;;;;;;;;5284387;28;20025;-71
2023/04/15 07:30:37;;;;;;;6.90;4.93;;;;;;;;;;5284219;28;20090;-72
2023/04/15 07:33:08;;;;;;;7.68;5.10;;;;;;;;;;5283570;28;20037;-72
2023/04/15 07:35:40;;;;;;;5.32;4.70;;;;;;;;;;5283969;28;20024;-73
2023/04/15 07:38:14;;;;;;;5.03;4.53;;;;;;;;;;5284512;28;20099;-73
2023/04/15 07:40:45;;;;;;;4.95;4.47;;;;;;;;;;5282939;28;20344;-73
2023/04/15 07:43:17;;;;;;;7.05;5.45;;;;;;;;;;5284129;28;20111;-73
2023/04/15 07:45:48;;;;;;;8.77;5.20;;;;;;;;;;5283454;28;20391;-72
2023/04/15 07:48:20;;;;;;;5.28;4.78;;;;;;;;;;5283115;28;20016;-71
2023/04/15 07:50:51;;;;;;;5.60;4.32;;;;;;;;;;5283551;28;20017;-73
2023/04/15 07:53:22;;;;;;;4.80;3.97;;;;;;;;;;5283114;28;20730;-69
2023/04/15 07:55:54;;;;;;;4.05;3.60;;;;;;;;;;5283449;28;20379;-69
2023/04/15 07:58:26;;;;;;;4.07;3.50;;;;;;;;;;5284346;28;20053;-70
2023/04/15 08:00:57;;;;;;;4.53;3.72;;;;;;;;;;5282678;28;20056;-74
2023/04/15 08:03:28;;;;;;;4.68;3.50;;;;;;;;;;5283763;28;20442;-75
2023/04/15 08:05:59;;;;;;;4.65;3.67;;;;;;;;;;5282691;28;20486;-76
2023/04/15 08:08:31;;;;;;;5.00;3.50;;;;;;;;;;5281439;28;20035;-76
2023/04/15 08:11:02;;;;;;;4.90;3.58;;;;;;;;;;5283933;28;20047;-75
2023/04/15 08:13:33;;;;;;;4.50;3.90;;;;;;;;;;5283699;28;20094;-75
2023/04/15 08:16:13;;;;;;;5.35;3.40;;;;;;;;;;5281900;28;20021;-75
2023/04/15 08:18:45;;;;;;;4.55;2.92;;;;;;;;;;5283196;28;20024;-76
2023/04/15 08:21:17;;;;;;;2.17;1.75;;;;;;;;;;5283113;28;20025;-75
2023/04/15 08:23:49;;;;;;;3.05;2.75;;;;;;;;;;5283257;28;20040;-75
2023/04/15 08:26:21;;;;;;;3.17;2.83;;;;;;;;;;5283556;28;20029;-76
2023/04/15 08:28:52;;;;;;;4.32;3.17;;;;;;;;;;5282289;28;20020;-75
2023/04/15 08:31:25;;;;;;;2.92;2.00;;;;;;;;;;5283761;28;20027;-75
2023/04/15 08:33:56;;;;;;;4.72;3.03;;;;;;;;;;5283063;28;20013;-75
2023/04/15 08:36:28;;;;;;;4.55;3.22;;;;;;;;;;5282891;28;20019;-75
2023/04/15 08:39:00;;;;;;;5.82;3.72;;;;;;;;;;5282792;28;20039;-76
2023/04/15 08:41:35;;;;;;;4.80;3.58;;;;;;;;;;5283195;28;20017;-75
2023/04/15 08:44:07;;;;;;;5.85;3.75;;;;;;;;;;5282265;28;20020;-76
2023/04/15 08:46:38;;;;;;;3.28;2.80;;;;;;;;;;5282958;28;20429;-75
2023/04/15 08:49:12;;;;;;;4.03;2.72;;;;;;;;;;5283713;28;20021;-74
2023/04/15 08:51:44;;;;;;;3.25;1.90;;;;;;;;;;5281841;28;20475;-75
2023/04/15 08:54:15;;;;;;;4.38;1.90;;;;;;;;;;5283178;28;20017;-75
2023/04/15 08:56:47;;;;;;;14.00;2.50;;;;;;;;;;5282260;28;20025;-74
2023/04/15 08:59:20;;;;;;;3.92;2.05;;;;;;;;;;5283651;28;20020;-74
2023/04/15 09:01:52;;;;;;;3.30;1.83;;;;;;;;;;5282684;28;20025;-74
2023/04/15 09:04:23;;;;;;;3.33;1.83;;;;;;;;;;5282373;28;20023;-74
2023/04/15 09:06:56;;;;;;;4.03;1.85;;;;;;;;;;5282252;28;20033;-74
2023/04/15 09:09:27;;;;;;;2.30;1.30;;;;;;;;;;5283053;28;20028;-74
2023/04/15 09:12:00;;;;;;;4.80;1.30;;;;;;;;;;5281617;28;20028;-74
2023/04/15 09:14:32;;;;;;;2.53;1.00;;;;;;;;;;5282623;28;20020;-74
2023/04/15 09:17:04;;;;;;;2.30;1.20;;;;;;;;;;5282830;28;20458;-75
2023/04/15 09:19:35;;;;;;;2.03;1.27;;;;;;;;;;5281643;28;20052;-76
2023/04/15 09:22:06;;;;;;;3.08;1.50;;;;;;;;;;5282282;28;20267;-75
2023/04/15 09:24:39;;;;;;;3.95;1.75;;;;;;;;;;5281066;28;20449;-75
2023/04/15 09:27:15;;;;;;;2.92;1.20;;;;;;;;;;5282587;28;20024;-75
2023/04/15 09:29:48;;;;;;;2.28;1.10;;;;;;;;;;5281667;28;20017;-75
2023/04/15 09:32:22;;;;;;;3.22;1.75;;;;;;;;;;5281665;28;20029;-75
2023/04/15 09:34:53;;;;;;;3.20;1.40;;;;;;;;;;5281787;28;20074;-75
2023/04/15 09:37:33;;;;;;;2.55;1.33;;;;;;;;;;5282488;28;20414;-76
2023/04/15 09:40:05;;;;;;;3.33;1.00;;;;;;;;;;5281329;28;20008;-75
2023/04/15 09:42:36;;;;;;;2.38;1.13;;;;;;;;;;5282451;28;20528;-75
2023/04/15 09:45:09;;;;;;;2.53;1.17;;;;;;;;;;5282066;28;20017;-75
2023/04/15 09:47:40;;;;;;;2.25;1.00;;;;;;;;;;5280701;28;20032;-75
2023/04/15 09:50:13;;;;;;;2.97;1.60;;;;;;;;;;5282060;28;20066;-75
2023/04/15 09:52:44;;;;;;;2.55;0.80;;;;;;;;;;5280494;28;20749;-75
2023/04/15 09:55:17;;;;;;;2.50;0.70;;;;;;;;;;5282151;28;20091;-75
2023/04/15 09:57:48;;;;;;;1.48;0.60;;;;;;;;;;5281117;28;20016;-71
2023/04/15 10:00:19;;;;;;;2.00;1.00;;;;;;;;;;5281150;28;20015;-71
2023/04/15 10:02:50;;;;;;;1.80;0.80;;;;;;;;;;5281089;28;20074;-75
2023/04/15 10:05:22;;;;;;;1.73;0.70;;;;;;;;;;5281859;28;20036;-74
2023/04/15 10:07:53;;;;;;;1.65;0.82;;;;;;;;;;5280196;28;20028;-75
2023/04/15 10:10:25;;;;;;;4.20;0.88;;;;;;;;;;5281783;28;20021;-74
2023/04/15 10:12:56;;;;;;;1.10;0.55;;;;;;;;;;5281249;28;20017;-74
2023/04/15 10:15:28;;;;;;;3.10;0.90;;;;;;;;;;5280930;28;20016;-74
2023/04/15 10:18:00;;;;;;;2.00;1.00;;;;;;;;;;5280979;28;20025;-73
2023/04/15 10:20:31;;;;;;;2.05;0.98;;;;;;;;;;5281274;28;20023;-74
2023/04/15 10:23:03;;;;;;;1.77;0.80;;;;;;;;;;5280535;28;20016;-73
2023/04/15 10:25:35;;;;;;;1.70;0.90;;;;;;;;;;5281350;28;20074;-73
2023/04/15 10:28:07;;;;;;;2.00;0.90;;;;;;;;;;5280407;28;20452;-75
2023/04/15 10:30:40;;;;;;;1.90;0.80;;;;;;;;;;5281175;28;20083;-75
2023/04/15 10:33:12;;;;;;;3.42;0.80;;;;;;;;;;5281726;28;20056;-74
2023/04/15 10:35:45;;;;;;;1.55;0.80;;;;;;;;;;5280198;28;20046;-74
2023/04/15 10:38:34;;;;;;;1.50;0.73;;;;;;;;;;5282616;28;20467;-75
2023/04/15 10:41:12;;;;;;;1.55;0.57;;;;;;;;;;5285271;28;20020;-74
2023/04/15 10:43:51;;;;;;;2.85;0.68;;;;;;;;;;5284264;28;20025;-76
2023/04/15 10:46:42;;;;;;;2.75;0.80;;;;;;;;;;5285690;28;20035;-73
2023/04/15 10:49:15;;;;;;;1.55;0.80;;;;;;;;;;5284891;28;20032;-75
2023/04/15 10:51:50;;;;;;;2.05;0.80;;;;;;;;;;5281152;28;20455;-74
2023/04/15 10:54:24;;;;;;;1.27;0.75;;;;;;;;;;5285526;28;20020;-73
2023/04/15 10:57:07;;;;;;;1.77;0.77;;;;;;;;;;5284322;28;20518;-73
2023/04/15 10:59:59;;;;;;;1.92;0.80;;;;;;;;;;5284934;28;20017;-74
2023/04/15 11:02:37;;;;;;;1.17;0.65;;;;;;;;;;5270311;28;20471;-73
2023/04/15 11:05:09;;;;;;;2.20;0.90;;;;;;;;;;5284012;28;20518;-73
2023/04/15 11:07:45;;;;;;;1.50;0.70;;;;;;;;;;5268925;28;20033;-75
2023/04/15 11:10:16;;;;;;;4.10;0.68;;;;;;;;;;5263125;28;20057;-73
2023/04/15 11:12:50;;;;;;;2.10;0.60;;;;;;;;;;5267820;28;20537;-74
2023/04/15 11:15:37;;;;;;;3.33;0.70;;;;;;;;;;5265492;28;20283;-74
2023/04/15 11:18:11;;;;;;;1.15;0.50;;;;;;;;;;5280751;28;20116;-73
2023/04/15 11:20:44;;;;;;;1.42;0.50;;;;;;;;;;5282363;28;20435;-73
2023/04/15 11:23:16;;;;;;;1.45;0.65;;;;;;;;;;5282714;28;20037;-72
2023/04/15 11:25:48;;;;;;;2.42;0.63;;;;;;;;;;5282075;28;20032;-72
2023/04/15 11:28:19;;;;;;;2.87;0.70;;;;;;;;;;5283399;28;20138;-74
2023/04/15 11:30:50;;;;;;;1.83;0.70;;;;;;;;;;5282767;28;20741;-74
2023/04/15 11:33:22;;;;;;;1.97;0.80;;;;;;;;;;5283187;28;20725;-73
2023/04/15 11:35:54;;;;;;;1.95;0.70;;;;;;;;;;5282920;28;20826;-74
2023/04/15 11:38:25;;;;;;;1.20;0.60;;;;;;;;;;5282509;28;20020;-73
2023/04/15 11:40:56;;;;;;;1.30;0.50;;;;;;;;;;5277503;28;20028;-73
2023/04/15 11:43:30;;;;;;;1.98;0.52;;;;;;;;;;5278952;28;20293;-74
2023/04/15 11:46:02;;;;;;;2.38;0.50;;;;;;;;;;5272844;28;20024;-73
2023/04/15 11:48:34;;;;;;;1.30;0.45;;;;;;;;;;5282762;28;20451;-74
2023/04/15 11:51:06;;;;;;;1.65;0.50;;;;;;;;;;5282364;28;20021;-74
2023/04/15 11:53:41;;;;;;;1.30;0.50;;;;;;;;;;5281851;28;20423;-74
2023/04/15 11:56:30;;;;;;;1.60;0.70;;;;;;;;;;5283255;28;20035;-74
2023/04/15 11:59:02;;;;;;;1.80;1.05;;;;;;;;;;5283028;28;20021;-74
2023/04/15 12:01:38;;;;;;;1.80;0.88;;;;;;;;;;5281808;28;20421;-74
2023/04/15 12:04:10;;;;;;;1.48;0.70;;;;;;;;;;5269373;28;20311;-74
2023/04/15 12:06:42;;;;;;;2.38;0.80;;;;;;;;;;5260745;28;20025;-73
2023/04/15 12:09:14;;;;;;;1.30;0.60;;;;;;;;;;5262099;28;20027;-74
2023/04/15 12:11:46;;;;;;;1.40;0.50;;;;;;;;;;5261593;28;20275;-73
2023/04/15 12:14:21;;;;;;;1.42;0.40;;;;;;;;;;5260177;28;20079;-74
2023/04/15 12:17:05;;;;;;;1.33;0.57;;;;;;;;;;5281487;28;20024;-74
2023/04/15 12:19:41;;;;;;;2.38;0.60;;;;;;;;;;5282093;28;20055;-74
2023/04/15 12:22:14;;;;;;;2.88;0.70;;;;;;;;;;5281242;28;20027;-74
2023/04/15 12:24:48;;;;;;;2.67;0.75;;;;;;;;;;5282147;28;20054;-74
2023/04/15 12:27:20;;;;;;;2.40;0.85;;;;;;;;;;5282733;28;20079;-73
2023/04/15 12:30:02;;;;;;;1.95;0.80;;;;;;;;;;5282013;28;20013;-73
2023/04/15 12:32:34;;;;;;;1.10;0.50;;;;;;;;;;5282866;28;20024;-73
2023/04/15 12:35:05;;;;;;;1.23;0.60;;;;;;;;;;5282007;28;20013;-74
2023/04/15 12:37:37;;;;;;;1.38;0.68;;;;;;;;;;5283214;28;20790;-74
2023/04/15 12:40:08;;;;;;;1.00;0.60;;;;;;;;;;5283121;28;20016;-74
2023/04/15 12:42:39;;;;;;;2.25;0.60;;;;;;;;;;5281495;28;20267;-75
2023/04/15 12:45:10;;;;;;;2.47;0.50;;;;;;;;;;5283242;28;20467;-74
2023/04/15 12:47:41;;;;;;;1.07;0.50;;;;;;;;;;5282090;28;20590;-74
2023/04/15 12:50:13;;;;;;;0.80;0.40;;;;;;;;;;5282572;28;20263;-74
2023/04/15 12:52:44;;;;;;;1.02;0.47;;;;;;;;;;5282651;28;20062;-73
2023/04/15 12:55:16;;;;;;;1.20;0.50;;;;;;;;;;5283310;28;20516;-75
2023/04/15 12:57:47;;;;;;;1.08;0.50;;;;;;;;;;5281766;28;20050;-74
2023/04/15 13:00:18;;;;;;;1.02;0.57;;;;;;;;;;5282805;28;20104;-73
2023/04/15 13:02:49;;;;;;;1.33;0.50;;;;;;;;;;5281055;28;20023;-74
2023/04/15 13:05:21;;;;;;;1.50;0.50;;;;;;;;;;5282439;28;20297;-75
2023/04/15 13:07:52;;;;;;;1.25;0.40;;;;;;;;;;5282182;28;20777;-75
2023/04/15 13:10:23;;;;;;;1.90;0.38;;;;;;;;;;5281953;28;20095;-75
2023/04/15 13:12:55;;;;;;;0.90;0.40;;;;;;;;;;5282464;28;20086;-75
2023/04/15 13:15:26;;;;;;;1.15;0.40;;;;;;;;;;5283242;28;20510;-75
2023/04/15 13:17:58;;;;;;;1.13;0.40;;;;;;;;;;5281610;28;20036;-75
2023/04/15 13:20:29;;;;;;;1.55;0.30;;;;;;;;;;5282615;28;20273;-75
2023/04/15 13:23:00;;;;;;;2.20;0.35;;;;;;;;;;5281788;28;20375;-75
2023/04/15 13:25:31;;;;;;;2.45;0.30;;;;;;;;;;5281937;28;20028;-75
2023/04/15 13:28:03;;;;;;;0.88;0.32;;;;;;;;;;5281901;28;20036;-75
2023/04/15 13:30:36;;;;;;;2.10;0.47;;;;;;;;;;5282042;28;20383;-75
2023/04/15 13:33:07;;;;;;;2.83;0.40;;;;;;;;;;5282018;28;20407;-75
2023/04/15 13:35:38;;;;;;;1.42;0.30;;;;;;;;;;5281533;28;20020;-75
2023/04/15 13:38:10;;;;;;;0.73;0.30;;;;;;;;;;5281815;28;20134;-75
2023/04/15 13:40:41;;;;;;;1.20;0.50;;;;;;;;;;5281832;28;20028;-75
2023/04/15 13:43:12;;;;;;;1.25;0.40;;;;;;;;;;5282508;28;20039;-75
2023/04/15 13:45:43;;;;;;;2.22;0.57;;;;;;;;;;5280828;28;20047;-75
2023/04/15 13:48:15;;;;;;;1.55;0.40;;;;;;;;;;5282335;28;20158;-75
2023/04/15 13:50:46;;;;;;;1.35;0.50;;;;;;;;;;5281595;28;20016;-75
2023/04/15 13:53:17;;;;;;;1.50;0.43;;;;;;;;;;5281300;28;20028;-74
2023/04/15 13:55:48;;;;;;;0.90;0.37;;;;;;;;;;5281551;28;20507;-74
2023/04/15 13:58:19;;;;;;;2.10;0.40;;;;;;;;;;5281769;28;20356;-75
2023/04/15 14:00:51;;;;;;;1.67;0.30;;;;;;;;;;5280573;28;20037;-75
2023/04/15 14:03:22;;;;;;;1.50;0.40;;;;;;;;;;5281943;28;20113;-75
2023/04/15 14:05:54;;;;;;;2.50;0.30;;;;;;;;;;5280489;28;20021;-74
2023/04/15 14:08:26;;;;;;;1.30;0.40;;;;;;;;;;5281891;28;20271;-75
2023/04/15 14:10:57;;;;;;;1.47;0.40;;;;;;;;;;5281236;28;20435;-74
2023/04/15 14:13:28;;;;;;;4.38;0.30;;;;;;;;;;5280419;28;20378;-74
2023/04/15 14:15:59;;;;;;;1.42;0.30;;;;;;;;;;5281445;28;20008;-75
2023/04/15 14:18:31;;;;;;;0.77;0.25;;;;;;;;;;5281717;28;20142;-75
2023/04/15 14:21:04;;;;;;;1.77;0.25;;;;;;;;;;5280253;28;20013;-74
2023/04/15 14:23:35;;;;;;;2.28;0.20;;;;;;;;;;5280872;28;20128;-75
2023/04/15 14:26:06;;;;;;;1.83;0.40;;;;;;;;;;5281200;28;20107;-75
2023/04/15 14:28:37;;;;;;;1.88;0.30;;;;;;;;;;5276463;28;20274;-74
2023/04/15 14:31:09;;;;;;;1.60;0.50;;;;;;;;;;5281316;28;20070;-74
2023/04/15 14:33:40;;;;;;;0.82;0.20;;;;;;;;;;5280770;28;20016;-74
2023/04/15 14:36:11;;;;;;;0.40;0.10;;;;;;;;;;5280211;28;20448;-74
2023/04/15 14:38:42;;;;;;;1.13;0.30;;;;;;;;;;5280836;28;20016;-74
2023/04/15 14:41:13;;;;;;;1.33;0.20;;;;;;;;;;5280710;28;20317;-75
2023/04/15 14:43:45;;;;;;;2.20;0.22;;;;;;;;;;5280048;28;20020;-74
2023/04/15 14:46:16;;;;;;;1.13;0.28;;;;;;;;;;5281138;28;20020;-74
2023/04/15 14:48:47;;;;;;;1.58;0.20;;;;;;;;;;5280767;28;20026;-75
2023/04/15 14:51:19;;;;;;;1.90;0.20;;;;;;;;;;5281572;28;20032;-75
2023/04/15 14:53:50;;;;;;;0.57;0.20;;;;;;;;;;5280135;28;20375;-76
2023/04/15 14:56:21;;;;;;;1.33;0.22;;;;;;;;;;5279875;28;20426;-76
2023/04/15 14:58:53;;;;;;;0.93;0.20;;;;;;;;;;5279477;28;20769;-76
2023/04/15 15:01:24;;;;;;;1.95;0.25;;;;;;;;;;5281151;28;20369;-75
2023/04/15 15:03:56;;;;;;;1.20;0.20;;;;;;;;;;5279918;28;20468;-75
2023/04/15 15:06:27;;;;;;;0.70;0.10;;;;;;;;;;5280478;28;20028;-75
2023/04/15 15:08:58;;;;;;;2.28;0.20;;;;;;;;;;5280498;28;20020;-75
2023/04/15 15:11:29;;;;;;;1.25;0.40;;;;;;;;;;5280193;28;20020;-76